Macedonia, Mississippi
Current Conditions -  °F | °C
As of 3:53 AM on Monday 22 Dec 2014 (Local Time) from KHBG Reporting Station
Moderate Fog Moderate Fog  
Wind Chill: 54°   Ceiling: 200
Heat Index: 54°   Visibility: 0.5mi
Dew Point: 53°   Wind: 5mph
Humidity: 97%   Direction: 90°E
Pressure: 29.9"   Gusts: NA
Location:  31.1996°N, 89.2694°W
Report Text: KHBG 220953Z AUTO 09004KT 1/2SM FG VV002 12/12 A2990 RMK AO2 SLP125 T01220117
Loading
Personal Weather Stations






























Interactive Weather Map New forecast layout! Learn more

10-Day Weather Forecast

Advertisements
Track Severe Weather on mobile